sensor_id;sensor_type;location;lat;lon;timestamp;temperature;humidity
37088;DHT22;23002;52.676;6.432;2023-04-03T00:14:40;4.10;99.90
37088;DHT22;23002;52.676;6.432;2023-04-03T01:58:23;3.20;99.90
37088;DHT22;23002;52.676;6.432;2023-04-03T02:00:50;3.30;99.90
37088;DHT22;23002;52.676;6.432;2023-04-03T02:03:17;3.30;99.90
37088;DHT22;23002;52.676;6.432;2023-04-03T03:17:28;2.80;99.90
37088;DHT22;23002;52.676;6.432;2023-04-03T03:32:16;2.20;99.90
37088;DHT22;23002;52.676;6.432;2023-04-03T05:53:49;1.90;99.90
37088;DHT22;23002;52.676;6.432;2023-04-03T05:56:19;2.00;99.90
37088;DHT22;23002;52.676;6.432;2023-04-03T05:58:46;2.20;99.90
37088;DHT22;23002;52.676;6.432;2023-04-03T06:01:13;2.00;99.90
37088;DHT22;23002;52.676;6.432;2023-04-03T06:03:40;2.00;99.90
37088;DHT22;23002;52.676;6.432;2023-04-03T06:18:32;2.40;99.90
37088;DHT22;23002;52.676;6.432;2023-04-03T06:20:59;2.60;99.90
37088;DHT22;23002;52.676;6.432;2023-04-03T06:30:52;2.50;99.90
37088;DHT22;23002;52.676;6.432;2023-04-03T06:33:19;2.60;99.90
37088;DHT22;23002;52.676;6.432;2023-04-03T06:38:15;2.70;99.90
37088;DHT22;23002;52.676;6.432;2023-04-03T06:40:41;2.70;99.90
37088;DHT22;23002;52.676;6.432;2023-04-03T06:43:08;2.50;99.90
37088;DHT22;23002;52.676;6.432;2023-04-03T06:50:30;3.10;99.90
37088;DHT22;23002;52.676;6.432;2023-04-03T06:52:57;3.20;99.90
37088;DHT22;23002;52.676;6.432;2023-04-03T06:55:24;3.70;99.90
37088;DHT22;23002;52.676;6.432;2023-04-03T06:57:50;5.40;99.90
37088;DHT22;23002;52.676;6.432;2023-04-03T07:00:17;6.70;99.90
37088;DHT22;23002;52.676;6.432;2023-04-03T07:02:44;7.60;99.90
37088;DHT22;23002;52.676;6.432;2023-04-03T07:05:10;8.40;99.90
37088;DHT22;23002;52.676;6.432;2023-04-03T07:07:37;7.70;99.90
37088;DHT22;23002;52.676;6.432;2023-04-03T07:10:05;7.70;99.90
37088;DHT22;23002;52.676;6.432;2023-04-03T09:30:23;14.70;97.80
37088;DHT22;23002;52.676;6.432;2023-04-03T09:32:51;14.40;99.90
37088;DHT22;23002;52.676;6.432;2023-04-03T09:37:58;14.20;99.90
37088;DHT22;23002;52.676;6.432;2023-04-03T09:42:58;15.30;97.50
37088;DHT22;23002;52.676;6.432;2023-04-03T09:45:29;15.30;93.20
37088;DHT22;23002;52.676;6.432;2023-04-03T09:48:07;15.20;90.60
37088;DHT22;23002;52.676;6.432;2023-04-03T09:53:27;13.60;91.50
37088;DHT22;23002;52.676;6.432;2023-04-03T09:55:54;14.30;92.20
37088;DHT22;23002;52.676;6.432;2023-04-03T10:20:49;13.40;94.50
37088;DHT22;23002;52.676;6.432;2023-04-03T10:23:20;13.90;95.50
37088;DHT22;23002;52.676;6.432;2023-04-03T10:39:11;14.40;91.60
37088;DHT22;23002;52.676;6.432;2023-04-03T10:46:49;13.90;92.10
37088;DHT22;23002;52.676;6.432;2023-04-03T10:49:32;13.90;91.00
37088;DHT22;23002;52.676;6.432;2023-04-03T10:52:07;13.40;91.80
37088;DHT22;23002;52.676;6.432;2023-04-03T10:54:39;13.40;91.50
37088;DHT22;23002;52.676;6.432;2023-04-03T10:57:08;13.30;92.30
37088;DHT22;23002;52.676;6.432;2023-04-03T10:59:46;14.30;94.10
37088;DHT22;23002;52.676;6.432;2023-04-03T11:02:36;14.50;93.10
37088;DHT22;23002;52.676;6.432;2023-04-03T11:05:04;15.40;99.90
37088;DHT22;23002;52.676;6.432;2023-04-03T11:42:24;14.30;99.90
37088;DHT22;23002;52.676;6.432;2023-04-03T11:59:46;15.90;91.80
37088;DHT22;23002;52.676;6.432;2023-04-03T12:05:28;14.80;93.50
37088;DHT22;23002;52.676;6.432;2023-04-03T12:13:38;13.90;91.40
37088;DHT22;23002;52.676;6.432;2023-04-03T12:16:19;13.90;91.40
37088;DHT22;23002;52.676;6.432;2023-04-03T12:21:15;15.50;99.90
37088;DHT22;23002;52.676;6.432;2023-04-03T12:26:25;15.40;99.90
37088;DHT22;23002;52.676;6.432;2023-04-03T12:29:13;14.90;99.00
37088;DHT22;23002;52.676;6.432;2023-04-03T12:31:44;14.70;96.20
37088;DHT22;23002;52.676;6.432;2023-04-03T12:34:15;14.60;99.80
37088;DHT22;23002;52.676;6.432;2023-04-03T12:37:03;13.50;97.80
37088;DHT22;23002;52.676;6.432;2023-04-03T12:39:42;13.60;98.40
37088;DHT22;23002;52.676;6.432;2023-04-03T12:42:16;13.90;99.50
37088;DHT22;23002;52.676;6.432;2023-04-03T12:44:46;13.70;97.00
37088;DHT22;23002;52.676;6.432;2023-04-03T12:47:19;13.80;96.90
37088;DHT22;23002;52.676;6.432;2023-04-03T12:49:48;13.50;98.10
37088;DHT22;23002;52.676;6.432;2023-04-03T12:55:03;12.60;97.50
37088;DHT22;23002;52.676;6.432;2023-04-03T12:57:33;12.10;97.90
37088;DHT22;23002;52.676;6.432;2023-04-03T13:00:00;12.30;98.90
37088;DHT22;23002;52.676;6.432;2023-04-03T13:02:44;12.90;99.90
37088;DHT22;23002;52.676;6.432;2023-04-03T13:05:14;13.00;99.90
37088;DHT22;23002;52.676;6.432;2023-04-03T13:07:42;13.00;99.90
37088;DHT22;23002;52.676;6.432;2023-04-03T13:15:23;12.10;99.90
37088;DHT22;23002;52.676;6.432;2023-04-03T13:17:51;11.80;99.90
37088;DHT22;23002;52.676;6.432;2023-04-03T13:20:21;11.10;99.90
37088;DHT22;23002;52.676;6.432;2023-04-03T13:25:16;11.00;99.60
37088;DHT22;23002;52.676;6.432;2023-04-03T13:27:43;11.00;96.50
37088;DHT22;23002;52.676;6.432;2023-04-03T13:30:20;10.80;98.30
37088;DHT22;23002;52.676;6.432;2023-04-03T13:32:47;11.40;97.90
37088;DHT22;23002;52.676;6.432;2023-04-03T13:35:24;11.70;99.50
37088;DHT22;23002;52.676;6.432;2023-04-03T13:37:55;11.20;96.70
37088;DHT22;23002;52.676;6.432;2023-04-03T13:40:22;11.50;97.10
37088;DHT22;23002;52.676;6.432;2023-04-03T13:42:58;11.30;99.90
37088;DHT22;23002;52.676;6.432;2023-04-03T13:45:26;11.00;99.90
37088;DHT22;23002;52.676;6.432;2023-04-03T13:48:09;10.90;99.90
37088;DHT22;23002;52.676;6.432;2023-04-03T13:51:05;11.20;99.90
37088;DHT22;23002;52.676;6.432;2023-04-03T13:53:33;11.50;97.10
37088;DHT22;23002;52.676;6.432;2023-04-03T13:56:16;11.60;99.90
37088;DHT22;23002;52.676;6.432;2023-04-03T13:58:58;11.50;99.90
37088;DHT22;23002;52.676;6.432;2023-04-03T14:01:32;10.80;99.90
37088;DHT22;23002;52.676;6.432;2023-04-03T14:04:00;11.20;99.90
37088;DHT22;23002;52.676;6.432;2023-04-03T14:06:27;11.60;94.90
37088;DHT22;23002;52.676;6.432;2023-04-03T14:08:55;11.20;95.10
37088;DHT22;23002;52.676;6.432;2023-04-03T14:11:26;11.40;98.40
37088;DHT22;23002;52.676;6.432;2023-04-03T14:13:55;11.30;97.10
37088;DHT22;23002;52.676;6.432;2023-04-03T14:16:26;11.20;95.70
37088;DHT22;23002;52.676;6.432;2023-04-03T14:18:53;11.20;94.40
37088;DHT22;23002;52.676;6.432;2023-04-03T14:21:20;11.20;95.10
37088;DHT22;23002;52.676;6.432;2023-04-03T14:23:47;11.20;97.00
37088;DHT22;23002;52.676;6.432;2023-04-03T14:26:15;11.20;97.30
37088;DHT22;23002;52.676;6.432;2023-04-03T14:28:48;11.60;99.00
37088;DHT22;23002;52.676;6.432;2023-04-03T14:31:15;11.80;98.90
37088;DHT22;23002;52.676;6.432;2023-04-03T14:33:42;11.70;99.40
37088;DHT22;23002;52.676;6.432;2023-04-03T14:36:16;11.60;99.80
37088;DHT22;23002;52.676;6.432;2023-04-03T14:38:44;11.50;98.60
37088;DHT22;23002;52.676;6.432;2023-04-03T14:41:12;11.70;99.10
37088;DHT22;23002;52.676;6.432;2023-04-03T14:43:42;11.50;99.60
37088;DHT22;23002;52.676;6.432;2023-04-03T14:46:11;11.60;99.90
37088;DHT22;23002;52.676;6.432;2023-04-03T14:48:39;11.80;99.90
37088;DHT22;23002;52.676;6.432;2023-04-03T14:51:06;11.80;99.90
37088;DHT22;23002;52.676;6.432;2023-04-03T14:53:33;11.40;99.90
37088;DHT22;23002;52.676;6.432;2023-04-03T14:56:04;11.50;99.90
37088;DHT22;23002;52.676;6.432;2023-04-03T14:58:31;11.30;99.90
37088;DHT22;23002;52.676;6.432;2023-04-03T15:00:58;11.10;99.90
37088;DHT22;23002;52.676;6.432;2023-04-03T15:03:25;11.20;99.90
37088;DHT22;23002;52.676;6.432;2023-04-03T15:05:51;11.30;99.90
37088;DHT22;23002;52.676;6.432;2023-04-03T15:08:19;11.30;99.90
37088;DHT22;23002;52.676;6.432;2023-04-03T15:10:47;11.20;99.90
37088;DHT22;23002;52.676;6.432;2023-04-03T15:13:13;11.30;99.90
37088;DHT22;23002;52.676;6.432;2023-04-03T15:15:40;11.40;99.90
37088;DHT22;23002;52.676;6.432;2023-04-03T15:18:09;11.40;99.90
37088;DHT22;23002;52.676;6.432;2023-04-03T15:20:36;11.30;99.90
37088;DHT22;23002;52.676;6.432;2023-04-03T15:23:03;11.20;99.90
37088;DHT22;23002;52.676;6.432;2023-04-03T15:25:31;11.60;99.90
37088;DHT22;23002;52.676;6.432;2023-04-03T15:27:58;12.40;99.60
37088;DHT22;23002;52.676;6.432;2023-04-03T15:30:26;12.40;99.90
37088;DHT22;23002;52.676;6.432;2023-04-03T15:32:52;12.20;99.90
37088;DHT22;23002;52.676;6.432;2023-04-03T15:35:19;11.70;99.90
37088;DHT22;23002;52.676;6.432;2023-04-03T15:37:46;11.60;99.90
37088;DHT22;23002;52.676;6.432;2023-04-03T15:40:14;11.50;98.90
37088;DHT22;23002;52.676;6.432;2023-04-03T15:42:41;11.60;99.40
37088;DHT22;23002;52.676;6.432;2023-04-03T15:45:08;11.90;99.70
37088;DHT22;23002;52.676;6.432;2023-04-03T15:47:34;11.80;99.00
37088;DHT22;23002;52.676;6.432;2023-04-03T15:50:01;11.70;99.00
37088;DHT22;23002;52.676;6.432;2023-04-03T15:52:28;11.80;98.80
37088;DHT22;23002;52.676;6.432;2023-04-03T15:54:54;11.70;98.40
37088;DHT22;23002;52.676;6.432;2023-04-03T15:57:21;11.30;98.70
37088;DHT22;23002;52.676;6.432;2023-04-03T15:59:52;11.10;98.30
37088;DHT22;23002;52.676;6.432;2023-04-03T16:02:19;11.10;98.10
37088;DHT22;23002;52.676;6.432;2023-04-03T16:04:45;11.40;99.90
37088;DHT22;23002;52.676;6.432;2023-04-03T16:07:12;11.50;98.60
37088;DHT22;23002;52.676;6.432;2023-04-03T16:09:39;11.50;98.40
37088;DHT22;23002;52.676;6.432;2023-04-03T16:12:05;11.50;98.10
37088;DHT22;23002;52.676;6.432;2023-04-03T16:14:32;11.50;99.00
37088;DHT22;23002;52.676;6.432;2023-04-03T16:16:59;11.60;98.50
37088;DHT22;23002;52.676;6.432;2023-04-03T16:19:26;11.30;98.70
37088;DHT22;23002;52.676;6.432;2023-04-03T16:21:53;11.30;98.50
37088;DHT22;23002;52.676;6.432;2023-04-03T16:24:20;11.30;98.90
37088;DHT22;23002;52.676;6.432;2023-04-03T16:26:46;11.30;98.80
37088;DHT22;23002;52.676;6.432;2023-04-03T16:29:13;11.30;98.20
37088;DHT22;23002;52.676;6.432;2023-04-03T16:31:40;11.10;98.30
37088;DHT22;23002;52.676;6.432;2023-04-03T16:34:07;11.10;98.50
37088;DHT22;23002;52.676;6.432;2023-04-03T16:36:34;11.10;99.60
37088;DHT22;23002;52.676;6.432;2023-04-03T16:39:01;11.50;99.60
37088;DHT22;23002;52.676;6.432;2023-04-03T16:41:27;11.50;99.90
37088;DHT22;23002;52.676;6.432;2023-04-03T16:43:54;11.50;99.90
37088;DHT22;23002;52.676;6.432;2023-04-03T16:46:21;11.30;99.20
37088;DHT22;23002;52.676;6.432;2023-04-03T16:48:47;11.30;99.70
37088;DHT22;23002;52.676;6.432;2023-04-03T16:51:14;11.20;99.40
37088;DHT22;23002;52.676;6.432;2023-04-03T16:53:41;11.20;98.90
37088;DHT22;23002;52.676;6.432;2023-04-03T16:56:08;10.80;99.30
37088;DHT22;23002;52.676;6.432;2023-04-03T16:58:35;10.80;99.50
37088;DHT22;23002;52.676;6.432;2023-04-03T17:01:08;10.90;99.90
37088;DHT22;23002;52.676;6.432;2023-04-03T17:03:35;10.70;99.80
37088;DHT22;23002;52.676;6.432;2023-04-03T17:06:02;10.50;99.80
37088;DHT22;23002;52.676;6.432;2023-04-03T17:08:28;10.30;99.90
37088;DHT22;23002;52.676;6.432;2023-04-03T17:10:55;10.30;99.90
37088;DHT22;23002;52.676;6.432;2023-04-03T17:13:21;10.30;99.90
37088;DHT22;23002;52.676;6.432;2023-04-03T17:15:48;10.30;99.90
37088;DHT22;23002;52.676;6.432;2023-04-03T17:18:15;10.20;99.90
37088;DHT22;23002;52.676;6.432;2023-04-03T17:20:41;10.10;99.90
37088;DHT22;23002;52.676;6.432;2023-04-03T17:23:08;9.90;99.90
37088;DHT22;23002;52.676;6.432;2023-04-03T17:25:34;9.90;99.90
37088;DHT22;23002;52.676;6.432;2023-04-03T17:28:01;10.00;99.90
37088;DHT22;23002;52.676;6.432;2023-04-03T17:30:28;10.10;99.90
37088;DHT22;23002;52.676;6.432;2023-04-03T17:32:54;10.20;99.90
37088;DHT22;23002;52.676;6.432;2023-04-03T17:35:21;10.20;99.90
37088;DHT22;23002;52.676;6.432;2023-04-03T17:37:48;9.90;99.90
37088;DHT22;23002;52.676;6.432;2023-04-03T17:40:15;9.90;99.90
37088;DHT22;23002;52.676;6.432;2023-04-03T17:42:44;9.80;99.90
37088;DHT22;23002;52.676;6.432;2023-04-03T17:45:10;9.70;99.90
37088;DHT22;23002;52.676;6.432;2023-04-03T17:47:39;9.20;99.90
37088;DHT22;23002;52.676;6.432;2023-04-03T17:50:06;9.50;95.80
37088;DHT22;23002;52.676;6.432;2023-04-03T17:52:33;9.40;96.30
37088;DHT22;23002;52.676;6.432;2023-04-03T17:54:59;9.30;96.30
37088;DHT22;23002;52.676;6.432;2023-04-03T17:57:26;9.30;96.50
37088;DHT22;23002;52.676;6.432;2023-04-03T17:59:53;9.40;96.50
37088;DHT22;23002;52.676;6.432;2023-04-03T18:02:20;9.30;96.70
37088;DHT22;23002;52.676;6.432;2023-04-03T18:04:49;9.20;97.70
37088;DHT22;23002;52.676;6.432;2023-04-03T18:07:15;9.10;96.80
37088;DHT22;23002;52.676;6.432;2023-04-03T18:09:42;9.20;96.90
37088;DHT22;23002;52.676;6.432;2023-04-03T18:12:11;9.10;97.00
37088;DHT22;23002;52.676;6.432;2023-04-03T18:14:38;9.10;97.00
37088;DHT22;23002;52.676;6.432;2023-04-03T18:17:06;8.80;97.30
37088;DHT22;23002;52.676;6.432;2023-04-03T18:19:33;8.80;97.50
37088;DHT22;23002;52.676;6.432;2023-04-03T18:22:01;8.70;97.80
37088;DHT22;23002;52.676;6.432;2023-04-03T18:24:28;8.50;98.10
37088;DHT22;23002;52.676;6.432;2023-04-03T18:26:57;8.60;98.50
37088;DHT22;23002;52.676;6.432;2023-04-03T18:29:25;8.60;98.40
37088;DHT22;23002;52.676;6.432;2023-04-03T18:31:53;8.40;98.40
37088;DHT22;23002;52.676;6.432;2023-04-03T18:34:21;8.40;98.60
37088;DHT22;23002;52.676;6.432;2023-04-03T18:36:47;8.30;98.70
37088;DHT22;23002;52.676;6.432;2023-04-03T18:39:14;8.20;99.40
37088;DHT22;23002;52.676;6.432;2023-04-03T18:41:41;8.10;99.40
37088;DHT22;23002;52.676;6.432;2023-04-03T18:44:09;8.00;99.90
37088;DHT22;23002;52.676;6.432;2023-04-03T18:46:37;7.80;99.90
37088;DHT22;23002;52.676;6.432;2023-04-03T18:49:04;7.80;99.90
37088;DHT22;23002;52.676;6.432;2023-04-03T18:51:31;7.80;99.90
37088;DHT22;23002;52.676;6.432;2023-04-03T18:53:57;7.60;99.90
37088;DHT22;23002;52.676;6.432;2023-04-03T18:56:24;7.60;99.90
37088;DHT22;23002;52.676;6.432;2023-04-03T18:58:52;7.40;99.90
37088;DHT22;23002;52.676;6.432;2023-04-03T19:01:20;7.40;99.90
37088;DHT22;23002;52.676;6.432;2023-04-03T19:03:47;7.40;99.90
37088;DHT22;23002;52.676;6.432;2023-04-03T19:06:14;7.60;99.90
37088;DHT22;23002;52.676;6.432;2023-04-03T19:08:40;7.50;99.90
37088;DHT22;23002;52.676;6.432;2023-04-03T19:11:07;7.60;99.90
37088;DHT22;23002;52.676;6.432;2023-04-03T19:13:34;7.70;99.90
37088;DHT22;23002;52.676;6.432;2023-04-03T19:16:02;7.20;99.90
37088;DHT22;23002;52.676;6.432;2023-04-03T19:18:29;7.20;99.90
37088;DHT22;23002;52.676;6.432;2023-04-03T19:20:56;7.20;99.90
37088;DHT22;23002;52.676;6.432;2023-04-03T19:23:24;7.00;99.90
37088;DHT22;23002;52.676;6.432;2023-04-03T19:26:04;6.80;99.90
37088;DHT22;23002;52.676;6.432;2023-04-03T19:28:31;6.90;99.90
37088;DHT22;23002;52.676;6.432;2023-04-03T19:30:59;6.80;99.90
37088;DHT22;23002;52.676;6.432;2023-04-03T19:33:26;6.90;99.90
37088;DHT22;23002;52.676;6.432;2023-04-03T19:35:53;6.90;99.90
37088;DHT22;23002;52.676;6.432;2023-04-03T19:38:20;6.70;99.90
37088;DHT22;23002;52.676;6.432;2023-04-03T19:40:46;6.60;99.90
37088;DHT22;23002;52.676;6.432;2023-04-03T19:43:13;6.60;99.90
37088;DHT22;23002;52.676;6.432;2023-04-03T19:45:41;6.70;99.90
37088;DHT22;23002;52.676;6.432;2023-04-03T19:48:09;6.50;99.90
37088;DHT22;23002;52.676;6.432;2023-04-03T19:50:36;6.30;99.90
37088;DHT22;23002;52.676;6.432;2023-04-03T19:53:03;6.40;99.90
37088;DHT22;23002;52.676;6.432;2023-04-03T19:55:29;6.50;99.90
37088;DHT22;23002;52.676;6.432;2023-04-03T19:58:00;6.60;99.90
37088;DHT22;23002;52.676;6.432;2023-04-03T20:00:27;6.50;99.90
37088;DHT22;23002;52.676;6.432;2023-04-03T20:02:54;6.40;99.90
37088;DHT22;23002;52.676;6.432;2023-04-03T20:05:21;6.20;99.90
37088;DHT22;23002;52.676;6.432;2023-04-03T20:07:47;6.10;99.90
37088;DHT22;23002;52.676;6.432;2023-04-03T20:10:15;6.20;99.90
37088;DHT22;23002;52.676;6.432;2023-04-03T20:12:41;6.20;99.90
37088;DHT22;23002;52.676;6.432;2023-04-03T20:15:08;6.10;99.90
37088;DHT22;23002;52.676;6.432;2023-04-03T20:17:35;6.20;99.90
37088;DHT22;23002;52.676;6.432;2023-04-03T20:20:02;6.10;99.90
37088;DHT22;23002;52.676;6.432;2023-04-03T20:22:30;6.10;99.90
37088;DHT22;23002;52.676;6.432;2023-04-03T20:24:57;6.10;99.90
37088;DHT22;23002;52.676;6.432;2023-04-03T20:27:32;6.00;99.90
37088;DHT22;23002;52.676;6.432;2023-04-03T20:30:00;6.10;99.90
37088;DHT22;23002;52.676;6.432;2023-04-03T20:32:29;6.10;99.90
37088;DHT22;23002;52.676;6.432;2023-04-03T20:34:56;6.10;99.90
37088;DHT22;23002;52.676;6.432;2023-04-03T20:37:30;6.00;99.90
37088;DHT22;23002;52.676;6.432;2023-04-03T20:39:57;5.20;99.90
37088;DHT22;23002;52.676;6.432;2023-04-03T20:42:23;6.00;99.90
37088;DHT22;23002;52.676;6.432;2023-04-03T20:44:50;5.70;99.90
37088;DHT22;23002;52.676;6.432;2023-04-03T20:47:16;5.70;99.90
37088;DHT22;23002;52.676;6.432;2023-04-03T20:49:43;5.40;99.90
37088;DHT22;23002;52.676;6.432;2023-04-03T20:52:10;5.50;99.90
37088;DHT22;23002;52.676;6.432;2023-04-03T20:54:37;5.60;99.90
37088;DHT22;23002;52.676;6.432;2023-04-03T20:57:04;5.50;99.90
37088;DHT22;23002;52.676;6.432;2023-04-03T20:59:30;5.30;99.90
37088;DHT22;23002;52.676;6.432;2023-04-03T21:01:59;5.40;99.90
37088;DHT22;23002;52.676;6.432;2023-04-03T21:20:42;6.00;99.90
37088;DHT22;23002;52.676;6.432;2023-04-03T21:23:13;5.50;99.90
37088;DHT22;23002;52.676;6.432;2023-04-03T21:25:40;5.30;99.90
37088;DHT22;23002;52.676;6.432;2023-04-03T21:28:06;5.60;99.90
37088;DHT22;23002;52.676;6.432;2023-04-03T21:30:33;5.60;99.90
37088;DHT22;23002;52.676;6.432;2023-04-03T21:32:59;5.30;99.90
37088;DHT22;23002;52.676;6.432;2023-04-03T21:35:26;5.30;99.90
37088;DHT22;23002;52.676;6.432;2023-04-03T21:37:53;5.00;99.90
37088;DHT22;23002;52.676;6.432;2023-04-03T21:40:19;5.10;99.90
37088;DHT22;23002;52.676;6.432;2023-04-03T21:42:46;5.30;99.90
37088;DHT22;23002;52.676;6.432;2023-04-03T21:45:12;5.30;99.90
37088;DHT22;23002;52.676;6.432;2023-04-03T21:47:41;5.70;99.90
37088;DHT22;23002;52.676;6.432;2023-04-03T21:50:09;5.20;99.90
37088;DHT22;23002;52.676;6.432;2023-04-03T21:52:35;5.10;99.90
37088;DHT22;23002;52.676;6.432;2023-04-03T21:55:02;6.00;99.90
37088;DHT22;23002;52.676;6.432;2023-04-03T21:57:29;3.60;99.90
37088;DHT22;23002;52.676;6.432;2023-04-03T21:59:56;4.80;99.90
37088;DHT22;23002;52.676;6.432;2023-04-03T22:02:23;5.00;99.90
37088;DHT22;23002;52.676;6.432;2023-04-03T22:04:52;5.00;99.90
37088;DHT22;23002;52.676;6.432;2023-04-03T22:07:19;5.10;99.90
37088;DHT22;23002;52.676;6.432;2023-04-03T22:09:46;4.90;99.90
37088;DHT22;23002;52.676;6.432;2023-04-03T22:12:13;4.80;99.90
37088;DHT22;23002;52.676;6.432;2023-04-03T22:14:40;4.40;99.90
37088;DHT22;23002;52.676;6.432;2023-04-03T22:17:07;4.80;99.90
37088;DHT22;23002;52.676;6.432;2023-04-03T22:19:34;4.90;99.90
37088;DHT22;23002;52.676;6.432;2023-04-03T22:22:01;4.90;99.90
37088;DHT22;23002;52.676;6.432;2023-04-03T22:24:28;4.90;99.90
37088;DHT22;23002;52.676;6.432;2023-04-03T22:26:55;4.80;99.90
37088;DHT22;23002;52.676;6.432;2023-04-03T22:29:22;4.70;99.90
37088;DHT22;23002;52.676;6.432;2023-04-03T22:31:48;4.60;99.90
37088;DHT22;23002;52.676;6.432;2023-04-03T22:34:15;4.60;99.90
37088;DHT22;23002;52.676;6.432;2023-04-03T22:36:42;4.60;99.90
37088;DHT22;23002;52.676;6.432;2023-04-03T22:39:08;4.40;99.90
37088;DHT22;23002;52.676;6.432;2023-04-03T22:41:37;4.50;99.90
37088;DHT22;23002;52.676;6.432;2023-04-03T22:44:04;3.90;99.90
37088;DHT22;23002;52.676;6.432;2023-04-03T22:46:30;4.50;99.90
37088;DHT22;23002;52.676;6.432;2023-04-03T22:48:57;4.50;99.90
37088;DHT22;23002;52.676;6.432;2023-04-03T22:51:24;3.80;99.90
37088;DHT22;23002;52.676;6.432;2023-04-03T22:53:50;4.10;99.90
37088;DHT22;23002;52.676;6.432;2023-04-03T22:56:17;5.20;99.90
37088;DHT22;23002;52.676;6.432;2023-04-03T22:58:44;4.10;99.90
37088;DHT22;23002;52.676;6.432;2023-04-03T23:01:13;4.00;99.90
37088;DHT22;23002;52.676;6.432;2023-04-03T23:03:40;4.20;99.90
37088;DHT22;23002;52.676;6.432;2023-04-03T23:06:08;4.10;99.90
37088;DHT22;23002;52.676;6.432;2023-04-03T23:08:35;4.10;99.90
37088;DHT22;23002;52.676;6.432;2023-04-03T23:11:04;4.20;99.90
37088;DHT22;23002;52.676;6.432;2023-04-03T23:13:32;4.20;99.90
37088;DHT22;23002;52.676;6.432;2023-04-03T23:15:59;4.30;99.90
37088;DHT22;23002;52.676;6.432;2023-04-03T23:18:26;4.20;99.90
37088;DHT22;23002;52.676;6.432;2023-04-03T23:21:00;4.20;99.90
37088;DHT22;23002;52.676;6.432;2023-04-03T23:23:27;4.10;99.90
37088;DHT22;23002;52.676;6.432;2023-04-03T23:25:54;4.10;99.90
37088;DHT22;23002;52.676;6.432;2023-04-03T23:28:21;4.10;99.90
37088;DHT22;23002;52.676;6.432;2023-04-03T23:30:48;4.10;99.90
37088;DHT22;23002;52.676;6.432;2023-04-03T23:33:16;4.10;99.90
37088;DHT22;23002;52.676;6.432;2023-04-03T23:35:43;3.80;99.90
37088;DHT22;23002;52.676;6.432;2023-04-03T23:38:12;4.60;99.90
37088;DHT22;23002;52.676;6.432;2023-04-03T23:40:40;3.90;99.90
37088;DHT22;23002;52.676;6.432;2023-04-03T23:43:06;3.80;99.90
37088;DHT22;23002;52.676;6.432;2023-04-03T23:45:33;3.80;99.90
37088;DHT22;23002;52.676;6.432;2023-04-03T23:48:00;4.20;99.90
37088;DHT22;23002;52.676;6.432;2023-04-03T23:50:27;4.00;99.90
37088;DHT22;23002;52.676;6.432;2023-04-03T23:52:54;3.70;99.90
37088;DHT22;23002;52.676;6.432;2023-04-03T23:55:20;3.70;99.90
37088;DHT22;23002;52.676;6.432;2023-04-03T23:57:47;4.50;99.90
